Fairborn, Ohio
Current Conditions -  °F | °C
As of 1:58 PM on Tuesday 21 Oct 2014 (Local Time) from KFFO Reporting Station
Broken Clouds Broken Clouds  
Wind Chill: 51°   Ceiling: 4700
Heat Index: 51°   Visibility: 10mi
Dew Point: 44°   Wind: 12mph
Humidity: 76%   Direction: 340°NNW
Pressure: 30.03"   Gusts: NA
Location:  39.83°N, 84.02°W
Report Text: KFFO 211758Z 34010KT 10SM FEW020 BKN047 BKN200 11/07 A3003 RMK AO2A SLP173 60000 T01080068 10113 20090 51005
Loading
Personal Weather Stations






























Interactive Weather Map
Tropical Storm Tracking
New forecast layout! Learn more

10-Day Weather Forecast

Advertisements
Track Severe Weather on mobile